Rocky Nook, Massachusetts
Current Conditions -  °F | °C
As of 1:52 AM on Saturday 25 Oct 2014 (Local Time) from KPYM Reporting Station
Overcast Overcast  
Wind Chill: 44°   Ceiling: 2600
Heat Index: 47°   Visibility: 10mi
Dew Point: 43°   Wind: 7mph
Humidity: 86%   Direction: 290°WNW
Pressure: 29.75"   Gusts: NA
Location:  41.9862°N, 70.748°W
Report Text: KPYM 250552Z AUTO 29006KT 10SM OVC026 08/06 A2975 RMK AO2 SLP075 T00830061 10100 20078 51005
Loading
Personal Weather Stations






























Interactive Weather Map
Tropical Storm Tracking
New forecast layout! Learn more

10-Day Weather Forecast

Advertisements
Track Severe Weather on mobile